createdAt,value
2022-12-12T08:39:11.131Z,14.37
2022-12-12T08:40:15.667Z,13.09
2022-12-12T08:41:20.003Z,13.14
2022-12-12T08:42:22.449Z,14.26
2022-12-12T08:43:28.691Z,13.69
2022-12-12T08:44:33.155Z,14.50
2022-12-12T08:45:40.158Z,13.07
2022-12-12T08:46:44.013Z,13.92
2022-12-12T08:47:46.588Z,14.52
2022-12-12T08:48:50.101Z,16.72
2022-12-12T08:49:53.758Z,14.86
2022-12-12T08:50:57.341Z,14.86
2022-12-12T08:52:01.791Z,14.18
2022-12-12T08:53:05.216Z,14.02
2022-12-12T08:54:11.832Z,14.16
2022-12-12T08:55:15.237Z,13.49
2022-12-12T08:56:20.842Z,15.20
2022-12-12T08:57:26.079Z,13.81
2022-12-12T08:58:29.454Z,14.22
2022-12-12T08:59:32.931Z,15.15
2022-12-12T09:01:55.814Z,15.64
2022-12-12T09:02:58.360Z,15.17
2022-12-12T09:04:03.659Z,13.13
2022-12-12T09:05:08.729Z,14.17
2022-12-12T09:06:20.162Z,14.28
2022-12-12T09:07:23.780Z,13.66
2022-12-12T09:08:27.460Z,15.86
2022-12-12T09:09:31.841Z,15.27
2022-12-12T09:10:35.398Z,14.16
2022-12-12T09:11:39.824Z,14.90
2022-12-12T09:12:44.201Z,13.89
2022-12-12T09:13:48.125Z,13.59
2022-12-12T09:14:54.504Z,14.19
2022-12-12T09:16:00.533Z,12.51
2022-12-12T09:17:03.368Z,14.08
2022-12-12T09:18:08.688Z,14.22
2022-12-12T09:19:11.965Z,14.33
2022-12-12T09:20:19.857Z,12.81
2022-12-12T09:21:23.464Z,12.50
2022-12-12T09:22:27.224Z,12.01
2022-12-12T09:23:30.915Z,13.31
2022-12-12T09:24:33.426Z,12.65
2022-12-12T09:25:42.638Z,13.89
2022-12-12T09:26:45.155Z,13.99
2022-12-12T09:27:48.485Z,14.28
2022-12-12T09:28:52.908Z,14.94
2022-12-12T09:29:55.462Z,12.95
2022-12-12T09:31:00.777Z,14.16
2022-12-12T09:32:05.384Z,15.22
2022-12-12T09:33:08.952Z,13.59
2022-12-12T09:34:12.187Z,14.09
2022-12-12T09:35:15.742Z,14.50
2022-12-12T09:36:23.122Z,14.25
2022-12-12T09:37:28.192Z,14.49
2022-12-12T09:38:32.778Z,15.40
2022-12-12T09:39:38.405Z,15.79
2022-12-12T09:41:03.194Z,16.04
2022-12-12T09:43:31.830Z,15.17
2022-12-12T09:44:34.487Z,17.05
2022-12-12T09:45:39.861Z,15.68
2022-12-12T09:46:51.742Z,16.10
2022-12-12T09:47:59.835Z,14.03
2022-12-12T09:49:20.860Z,16.48
2022-12-12T09:51:31.143Z,16.18
2022-12-12T09:52:37.707Z,16.51
2022-12-12T09:53:43.646Z,18.01
2022-12-12T09:54:48.673Z,14.18
2022-12-12T09:55:57.700Z,16.07
2022-12-12T09:57:25.609Z,16.28
2022-12-12T09:58:49.183Z,15.41
2022-12-12T10:00:02.391Z,15.80
2022-12-12T10:01:29.139Z,15.74
2022-12-12T10:02:47.484Z,16.02
2022-12-12T10:03:57.566Z,16.92
2022-12-12T10:05:19.325Z,17.81
2022-12-12T10:06:40.131Z,16.04
2022-12-12T10:09:28.471Z,17.17
2022-12-12T10:11:55.580Z,17.59
2022-12-12T10:13:01.681Z,15.87
2022-12-12T10:14:08.839Z,17.41
2022-12-12T10:15:23.154Z,17.23
2022-12-12T10:16:29.238Z,17.68
2022-12-12T10:17:44.883Z,16.61
2022-12-12T10:18:52.202Z,18.45
2022-12-12T10:20:02.080Z,17.22
2022-12-12T10:21:09.556Z,17.82
2022-12-12T10:22:24.215Z,17.48
2022-12-12T10:23:51.166Z,17.93
2022-12-12T10:24:58.376Z,15.93
2022-12-12T10:26:15.483Z,16.26
2022-12-12T10:27:20.348Z,17.90
2022-12-12T10:28:29.857Z,16.61
2022-12-12T10:29:39.627Z,17.03
2022-12-12T10:30:52.165Z,15.59
2022-12-12T10:31:59.410Z,15.58
2022-12-12T10:33:40.176Z,14.15
2022-12-12T10:34:56.411Z,17.03
2022-12-12T10:36:27.356Z,16.19
2022-12-12T10:37:57.507Z,16.65
2022-12-12T10:39:04.846Z,15.74
2022-12-12T10:40:18.802Z,15.83
2022-12-12T10:41:35.552Z,16.93
2022-12-12T10:42:51.860Z,17.93
2022-12-12T10:44:29.686Z,19.84
2022-12-12T10:45:54.885Z,17.49
2022-12-12T10:47:10.375Z,17.78
2022-12-12T10:48:14.134Z,16.53
2022-12-12T10:49:21.841Z,18.14
2022-12-12T10:50:40.417Z,18.18
2022-12-12T10:51:46.820Z,18.46
2022-12-12T10:52:50.449Z,14.73
2022-12-12T10:53:54.060Z,18.05
2022-12-12T10:55:01.470Z,17.29
2022-12-12T10:56:11.942Z,17.42
2022-12-12T10:57:29.598Z,16.33
2022-12-12T10:58:42.798Z,15.82
2022-12-12T10:59:49.894Z,16.73
2022-12-12T11:01:02.033Z,15.32
2022-12-12T11:02:11.034Z,16.94
2022-12-12T11:03:30.472Z,15.33
2022-12-12T11:04:34.142Z,15.81
2022-12-12T11:05:40.444Z,17.85
2022-12-12T11:06:49.271Z,17.07
2022-12-12T11:08:03.237Z,16.48
2022-12-12T11:09:24.942Z,17.32
2022-12-12T11:10:34.612Z,14.98
2022-12-12T11:11:38.619Z,16.89
2022-12-12T11:12:42.038Z,14.90
2022-12-12T11:15:08.766Z,16.01
2022-12-12T11:16:19.212Z,15.29
2022-12-12T11:17:29.878Z,15.01
2022-12-12T11:18:33.556Z,14.86
2022-12-12T11:19:39.489Z,14.88
2022-12-12T11:20:48.313Z,14.21
2022-12-12T11:21:55.806Z,12.65
2022-12-12T11:22:59.513Z,12.82
2022-12-12T11:25:23.510Z,14.40
2022-12-12T11:26:29.961Z,12.79
2022-12-12T11:27:36.139Z,14.28
2022-12-12T11:28:44.770Z,14.37
2022-12-12T11:30:00.945Z,12.81
2022-12-12T11:31:09.501Z,12.88
2022-12-12T11:32:25.230Z,12.05
2022-12-12T11:33:35.715Z,13.54
2022-12-12T11:34:43.326Z,13.84
2022-12-12T11:35:47.956Z,12.60
2022-12-12T11:36:52.024Z,14.55
2022-12-12T11:38:00.756Z,12.63
2022-12-12T11:40:31.579Z,14.56
2022-12-12T11:41:40.000Z,15.14
2022-12-12T11:42:43.384Z,13.64
2022-12-12T11:43:58.855Z,15.82
2022-12-12T11:45:09.218Z,15.05
2022-12-12T11:46:17.800Z,13.87
2022-12-12T11:47:35.104Z,14.84
2022-12-12T11:48:54.762Z,14.66
2022-12-12T11:50:07.683Z,13.81
2022-12-12T11:51:13.806Z,14.57
2022-12-12T11:52:21.155Z,13.26
2022-12-12T11:53:29.011Z,13.76
2022-12-12T11:54:31.915Z,14.69
2022-12-12T11:55:42.015Z,15.45
2022-12-12T11:57:15.719Z,14.92
2022-12-12T11:58:25.685Z,14.56
2022-12-12T12:00:55.102Z,15.31
2022-12-12T12:02:01.474Z,14.63
2022-12-12T12:03:27.193Z,14.44
2022-12-12T12:04:58.726Z,13.89
2022-12-12T12:06:10.866Z,13.77
2022-12-12T12:07:24.074Z,14.60
2022-12-12T12:08:48.971Z,13.91
2022-12-12T12:09:58.182Z,14.54
2022-12-12T12:11:08.269Z,13.75
2022-12-12T12:12:24.611Z,15.97
2022-12-12T12:13:41.454Z,15.42
2022-12-12T12:15:22.114Z,13.39
2022-12-12T12:16:46.474Z,14.09
2022-12-12T12:17:59.505Z,14.53
2022-12-12T12:19:11.445Z,14.24
2022-12-12T12:20:31.594Z,14.89
2022-12-12T12:22:03.156Z,14.51
2022-12-12T12:23:21.381Z,12.97
2022-12-12T12:24:52.929Z,12.98
2022-12-12T12:26:09.863Z,13.52
2022-12-12T12:27:24.344Z,12.84
2022-12-12T12:28:57.192Z,14.64
2022-12-12T12:30:16.629Z,14.58
2022-12-12T12:31:49.959Z,14.71
2022-12-12T12:33:05.348Z,13.66
2022-12-12T12:34:24.381Z,13.66
2022-12-12T12:35:34.179Z,14.57
2022-12-12T12:36:56.945Z,15.51
2022-12-12T12:38:28.123Z,14.33
2022-12-12T12:39:41.596Z,13.48
2022-12-12T12:41:19.104Z,16.38
2022-12-12T12:42:51.663Z,15.72
2022-12-12T12:44:05.229Z,17.56
2022-12-12T12:45:21.430Z,15.67
2022-12-12T12:46:31.641Z,15.08
2022-12-12T12:47:57.097Z,14.16
2022-12-12T12:50:28.291Z,16.17
2022-12-12T12:51:45.564Z,16.13
2022-12-12T12:53:00.133Z,16.38
2022-12-12T12:54:10.145Z,15.22
2022-12-12T12:55:17.402Z,16.89
2022-12-12T12:56:28.121Z,15.55
2022-12-12T12:57:35.547Z,16.56
2022-12-12T12:58:41.782Z,15.68
2022-12-12T12:59:49.304Z,17.52
2022-12-12T13:01:11.848Z,16.42
2022-12-12T13:02:31.335Z,14.12
2022-12-12T13:03:40.404Z,14.39
2022-12-12T13:06:08.381Z,12.09
2022-12-12T13:07:21.431Z,15.26
2022-12-12T13:08:47.061Z,14.97
2022-12-12T13:10:11.320Z,16.18
2022-12-12T13:11:29.271Z,14.80
2022-12-12T13:12:48.500Z,13.40
2022-12-12T13:13:54.898Z,15.74
2022-12-12T13:15:27.308Z,14.73
2022-12-12T13:16:34.294Z,15.72
